Time;durP1;ratioP1;P1;durP2;ratioP2;P2;SDS_P1;SDS_P2;PMS_P1;PMS_P2;Temp;Humidity;BMP_temperature;BMP_pressure;BME280_temperature;BME280_humidity;BME280_pressure;Samples;Min_cycle;Max_cycle;Signal;HPM_P1;HPM_P2
2021/04/03 00:01:18;;;;;;;2.55;1.45;;;4.90;98.90;;;;;;5060888;28;20021;-74
2021/04/03 00:03:43;;;;;;;1.50;1.25;;;4.90;99.10;;;;;;5062256;28;20591;-74
2021/04/03 00:06:09;;;;;;;2.47;1.38;;;4.90;99.40;;;;;;5062727;28;20111;-74
2021/04/03 00:08:35;;;;;;;2.88;1.67;;;4.90;99.80;;;;;;5059655;28;20476;-74
2021/04/03 00:11:05;;;;;;;2.78;1.60;;;4.90;99.90;;;;;;5061740;28;20103;-74
2021/04/03 00:13:37;;;;;;;2.00;1.30;;;4.90;99.90;;;;;;5061859;28;20029;-74
2021/04/03 00:16:04;;;;;;;2.40;1.42;;;4.90;99.90;;;;;;5060007;28;20152;-74
2021/04/03 00:18:29;;;;;;;3.03;1.13;;;4.90;99.90;;;;;;5060605;28;20503;-73
2021/04/03 00:20:55;;;;;;;4.82;1.25;;;4.90;99.90;;;;;;5062470;28;20051;-73
2021/04/03 00:23:22;;;;;;;1.58;1.23;;;4.90;99.20;;;;;;5061411;28;20060;-74
2021/04/03 00:25:49;;;;;;;2.45;1.17;;;5.00;99.40;;;;;;5061460;28;20108;-74
2021/04/03 00:28:14;;;;;;;2.35;1.00;;;4.90;98.80;;;;;;5062342;28;20054;-74
2021/04/03 00:30:41;;;;;;;4.75;1.40;;;4.90;98.90;;;;;;5060788;28;20063;-74
2021/04/03 00:33:08;;;;;;;3.85;1.33;;;4.90;97.70;;;;;;5061280;28;20074;-74
2021/04/03 00:35:37;;;;;;;5.55;2.17;;;5.00;98.40;;;;;;5061493;28;20058;-74
2021/04/03 00:38:05;;;;;;;1.63;1.25;;;5.00;98.20;;;;;;5060713;28;20029;-74
2021/04/03 00:40:44;;;;;;;2.85;1.48;;;5.00;98.40;;;;;;5060163;28;20384;-73
2021/04/03 00:43:23;;;;;;;3.60;1.10;;;5.00;98.20;;;;;;5093754;28;20377;-74
2021/04/03 00:45:49;;;;;;;2.03;1.10;;;5.00;98.50;;;;;;5059821;28;20052;-74
2021/04/03 00:48:16;;;;;;;2.38;1.33;;;5.10;98.80;;;;;;5059409;28;20052;-74
2021/04/03 00:50:44;;;;;;;4.43;1.30;;;5.00;98.80;;;;;;5059022;28;20116;-74
2021/04/03 00:53:17;;;;;;;1.73;1.10;;;5.00;99.50;;;;;;5060900;28;20058;-73
2021/04/03 00:55:49;;;;;;;4.43;1.58;;;5.00;98.30;;;;;;5059655;28;20025;-74
2021/04/03 00:58:20;;;;;;;1.23;0.90;;;5.00;99.10;;;;;;5040431;28;20407;-74
2021/04/03 01:00:47;;;;;;;5.47;1.00;;;5.00;99.10;;;;;;5057983;28;20921;-74
2021/04/03 01:03:14;;;;;;;1.77;1.17;;;5.00;99.40;;;;;;5059052;28;20035;-74
2021/04/03 01:05:41;;;;;;;2.13;0.77;;;5.00;99.30;;;;;;5042945;28;20083;-74
2021/04/03 01:08:11;;;;;;;1.77;1.15;;;5.00;99.40;;;;;;5058344;28;20426;-74
2021/04/03 01:10:44;;;;;;;3.03;1.00;;;5.00;99.30;;;;;;5055348;28;20079;-74
2021/04/03 01:13:34;;;;;;;1.23;1.00;;;5.00;99.50;;;;;;5059914;28;20037;-74
2021/04/03 01:16:16;;;;;;;2.65;1.23;;;5.00;99.50;;;;;;5057159;28;20033;-73
2021/04/03 01:18:58;;;;;;;3.20;1.13;;;5.00;99.60;;;;;;5057164;28;20049;-73
2021/04/03 01:21:46;;;;;;;4.57;1.13;;;4.90;99.90;;;;;;5057032;28;20071;-74
2021/04/03 01:24:26;;;;;;;2.13;1.00;;;4.90;99.50;;;;;;5093123;28;20025;-74
2021/04/03 01:27:28;;;;;;;6.15;0.90;;;4.90;99.90;;;;;;5059310;28;20024;-74
2021/04/03 01:30:26;;;;;;;1.63;1.10;;;4.90;99.90;;;;;;5054190;28;20050;-74
2021/04/03 01:33:09;;;;;;;2.28;0.95;;;4.90;99.90;;;;;;5046215;28;20033;-74
2021/04/03 01:36:03;;;;;;;2.72;1.10;;;4.80;99.90;;;;;;5060249;28;20029;-74
2021/04/03 01:38:42;;;;;;;1.85;0.93;;;4.80;99.90;;;;;;5054891;28;20608;-74
2021/04/03 01:41:21;;;;;;;4.68;1.73;;;4.70;99.90;;;;;;5057341;28;20081;-74
2021/04/03 01:43:50;;;;;;;1.42;1.00;;;4.70;99.90;;;;;;5059352;28;20025;-74
2021/04/03 01:46:25;;;;;;;2.75;1.25;;;4.70;99.90;;;;;;5058036;28;20063;-74
2021/04/03 01:48:54;;;;;;;1.83;1.10;;;4.60;99.90;;;;;;5058164;28;20020;-74
2021/04/03 01:51:21;;;;;;;1.38;0.85;;;4.60;99.90;;;;;;5055336;28;20766;-74
2021/04/03 01:53:50;;;;;;;3.55;0.85;;;4.60;99.90;;;;;;5058465;28;20028;-74
2021/04/03 01:56:19;;;;;;;1.02;0.95;;;4.60;99.90;;;;;;5059371;28;20458;-74
2021/04/03 01:58:47;;;;;;;2.30;0.75;;;4.60;99.90;;;;;;5059124;28;20128;-76
2021/04/03 02:01:15;;;;;;;3.60;1.02;;;4.60;99.90;;;;;;5058410;28;20108;-76
2021/04/03 02:03:43;;;;;;;1.40;0.90;;;4.60;99.90;;;;;;5058995;28;20035;-76
2021/04/03 02:06:11;;;;;;;1.73;0.93;;;4.60;99.90;;;;;;5058957;28;20082;-76
2021/04/03 02:08:50;;;;;;;2.10;1.00;;;4.60;99.90;;;;;;5058660;28;20369;-76
2021/04/03 02:11:36;;;;;;;4.68;1.50;;;4.60;99.90;;;;;;5058964;28;20017;-76
2021/04/03 02:14:16;;;;;;;1.40;0.85;;;4.60;99.90;;;;;;5059654;28;20090;-76
2021/04/03 02:16:45;;;;;;;1.55;0.98;;;4.60;99.90;;;;;;5040912;28;20112;-76
2021/04/03 02:19:12;;;;;;;1.83;1.08;;;4.60;99.90;;;;;;5057791;28;20039;-76
2021/04/03 02:21:41;;;;;;;2.53;0.85;;;4.70;99.90;;;;;;5055466;28;20137;-76
2021/04/03 02:24:08;;;;;;;3.95;1.30;;;4.70;99.90;;;;;;5057452;28;20040;-74
2021/04/03 02:26:36;;;;;;;1.45;0.90;;;4.60;99.90;;;;;;5040242;28;20056;-74
2021/04/03 02:29:04;;;;;;;0.80;0.80;;;4.60;99.90;;;;;;5060382;28;20028;-74
2021/04/03 02:31:32;;;;;;;1.98;1.08;;;4.50;99.90;;;;;;5041972;28;20025;-74
2021/04/03 02:33:58;;;;;;;2.17;1.02;;;4.50;99.90;;;;;;5055932;28;20036;-74
2021/04/03 02:36:24;;;;;;;1.42;1.00;;;4.40;99.90;;;;;;5041157;28;20040;-74
2021/04/03 02:38:51;;;;;;;2.28;1.10;;;4.40;99.90;;;;;;5059459;28;20029;-74
2021/04/03 02:41:28;;;;;;;2.80;1.00;;;4.30;99.90;;;;;;5056500;28;20029;-74
2021/04/03 02:44:08;;;;;;;2.70;1.33;;;4.30;99.90;;;;;;5090806;28;20075;-74
2021/04/03 02:46:41;;;;;;;4.00;1.15;;;4.30;99.90;;;;;;5056479;28;20028;-74
2021/04/03 02:49:15;;;;;;;4.47;1.40;;;4.30;99.90;;;;;;5058033;28;20071;-74
2021/04/03 02:51:46;;;;;;;1.30;0.90;;;4.20;99.90;;;;;;5051069;28;20017;-74
2021/04/03 02:54:16;;;;;;;1.33;0.90;;;4.20;99.90;;;;;;5057417;28;20037;-74
2021/04/03 02:56:45;;;;;;;1.83;1.00;;;4.20;99.90;;;;;;5057932;28;20032;-74
2021/04/03 02:59:26;;;;;;;1.30;1.05;;;4.20;99.90;;;;;;5040577;28;20033;-74
2021/04/03 03:01:54;;;;;;;4.00;1.20;;;4.30;99.90;;;;;;5057508;28;20736;-74
2021/04/03 03:04:21;;;;;;;1.98;1.08;;;4.30;99.90;;;;;;5058495;28;20104;-74
2021/04/03 03:06:48;;;;;;;3.83;0.82;;;4.30;99.90;;;;;;5040541;28;20107;-73
2021/04/03 03:09:16;;;;;;;2.70;0.90;;;4.30;99.90;;;;;;5057169;28;20021;-74
2021/04/03 03:11:45;;;;;;;2.72;1.10;;;4.30;99.90;;;;;;5059081;28;20036;-74
2021/04/03 03:14:16;;;;;;;3.08;1.40;;;4.30;99.90;;;;;;5060463;28;20025;-74
2021/04/03 03:16:45;;;;;;;1.40;0.80;;;4.30;99.90;;;;;;5056211;28;20036;-74
2021/04/03 03:19:13;;;;;;;1.80;1.00;;;4.30;99.90;;;;;;5057184;28;20039;-74
2021/04/03 03:21:40;;;;;;;1.50;0.80;;;4.30;99.90;;;;;;5053951;28;20082;-74
2021/04/03 03:24:11;;;;;;;3.63;1.38;;;4.30;99.90;;;;;;5061495;28;20043;-74
2021/04/03 03:26:39;;;;;;;2.88;0.98;;;4.30;99.90;;;;;;5062243;28;20021;-74
2021/04/03 03:29:08;;;;;;;2.45;1.00;;;4.30;99.90;;;;;;5061672;28;20025;-74
2021/04/03 03:31:35;;;;;;;3.03;1.50;;;4.40;99.90;;;;;;5060019;28;20021;-74
2021/04/03 03:34:02;;;;;;;2.75;0.93;;;4.40;99.90;;;;;;5063383;28;20035;-74
2021/04/03 03:36:29;;;;;;;3.35;1.00;;;4.40;99.90;;;;;;5044508;28;20028;-74
2021/04/03 03:38:58;;;;;;;2.65;1.20;;;4.40;99.90;;;;;;5060097;28;20025;-74
2021/04/03 03:41:27;;;;;;;1.67;1.38;;;4.40;99.90;;;;;;5062153;28;20499;-74
2021/04/03 03:43:54;;;;;;;2.47;1.00;;;4.40;99.90;;;;;;5060778;28;20470;-74
2021/04/03 03:46:20;;;;;;;1.25;1.08;;;4.40;99.90;;;;;;5059535;28;20031;-74
2021/04/03 03:48:47;;;;;;;3.33;1.35;;;4.40;99.90;;;;;;5061228;28;20031;-74
2021/04/03 03:51:14;;;;;;;1.58;1.20;;;4.40;99.90;;;;;;5045326;28;20703;-74
2021/04/03 03:53:52;;;;;;;3.00;1.42;;;4.40;99.90;;;;;;5063471;28;20115;-74
2021/04/03 03:56:19;;;;;;;4.50;1.60;;;4.40;99.90;;;;;;5059696;28;20468;-73
2021/04/03 03:58:45;;;;;;;4.50;1.50;;;4.40;99.90;;;;;;5061504;28;20032;-74
2021/04/03 04:01:12;;;;;;;4.40;1.60;;;4.40;99.90;;;;;;5062667;28;20025;-74
2021/04/03 04:03:39;;;;;;;2.05;1.10;;;4.40;99.90;;;;;;5043617;28;20024;-74
2021/04/03 04:06:12;;;;;;;4.72;1.48;;;4.40;99.90;;;;;;5056815;28;20050;-76
2021/04/03 04:08:40;;;;;;;3.03;1.52;;;4.40;99.90;;;;;;5062031;28;20408;-76
2021/04/03 04:11:13;;;;;;;3.47;1.40;;;4.40;99.90;;;;;;5044021;28;20024;-76
2021/04/03 04:13:40;;;;;;;3.42;1.60;;;4.40;99.90;;;;;;5061686;28;20025;-76
2021/04/03 04:16:07;;;;;;;5.38;1.45;;;4.40;99.90;;;;;;5062159;28;20082;-76
2021/04/03 04:18:35;;;;;;;2.13;1.42;;;4.40;99.90;;;;;;5029217;28;20120;-76
2021/04/03 04:21:04;;;;;;;3.58;1.20;;;4.40;99.90;;;;;;5044285;28;20029;-76
2021/04/03 04:23:33;;;;;;;6.57;1.80;;;4.40;99.90;;;;;;5061496;28;20051;-76
2021/04/03 04:26:02;;;;;;;7.43;1.55;;;4.50;99.90;;;;;;5057600;28;20035;-76
2021/04/03 04:28:29;;;;;;;4.60;1.40;;;4.50;99.90;;;;;;5059674;28;20033;-73
2021/04/03 04:30:57;;;;;;;10.07;2.05;;;4.50;99.90;;;;;;5061043;28;20042;-74
2021/04/03 04:33:25;;;;;;;3.13;1.70;;;4.40;99.90;;;;;;5059714;28;20029;-73
2021/04/03 04:35:53;;;;;;;7.43;1.42;;;4.50;99.90;;;;;;5060521;28;20029;-74
2021/04/03 04:38:22;;;;;;;3.28;1.65;;;4.40;99.90;;;;;;5056948;28;20025;-74
2021/04/03 04:40:48;;;;;;;4.32;1.50;;;4.50;99.90;;;;;;5059471;28;20108;-74
2021/04/03 04:43:19;;;;;;;5.07;1.75;;;4.50;99.90;;;;;;5056057;28;20028;-74
2021/04/03 04:45:46;;;;;;;5.57;1.48;;;4.50;99.90;;;;;;5061092;28;20082;-74
2021/04/03 04:48:12;;;;;;;5.32;1.90;;;4.50;99.90;;;;;;5058781;28;20484;-73
2021/04/03 04:50:41;;;;;;;5.55;1.63;;;4.40;99.90;;;;;;5057699;28;20036;-73
2021/04/03 04:53:09;;;;;;;6.63;2.10;;;4.50;99.90;;;;;;5059854;28;20059;-75
2021/04/03 04:55:39;;;;;;;6.47;1.70;;;4.50;99.90;;;;;;5056402;28;20033;-74
2021/04/03 04:58:07;;;;;;;5.70;1.77;;;4.50;99.90;;;;;;5039711;28;20033;-74
2021/04/03 05:00:32;;;;;;;9.63;2.28;;;4.50;99.90;;;;;;5059380;28;20035;-74
2021/04/03 05:03:05;;;;;;;6.32;1.90;;;4.60;99.90;;;;;;5060732;28;20044;-74
2021/04/03 05:05:31;;;;;;;5.55;1.67;;;4.60;99.90;;;;;;5061520;28;20029;-74
2021/04/03 05:07:56;;;;;;;7.63;1.70;;;4.50;99.90;;;;;;5059549;28;20094;-74
2021/04/03 05:10:22;;;;;;;3.25;1.40;;;4.50;99.90;;;;;;5060290;28;20112;-74
2021/04/03 05:12:48;;;;;;;5.13;1.70;;;4.50;99.90;;;;;;5057343;28;20040;-73
2021/04/03 05:15:14;;;;;;;7.38;1.77;;;4.40;99.90;;;;;;5058840;28;20044;-73
2021/04/03 05:17:39;;;;;;;2.50;1.70;;;4.40;99.90;;;;;;5057913;28;20044;-74
2021/04/03 05:20:06;;;;;;;6.10;1.80;;;4.40;99.90;;;;;;5061262;28;20036;-73
2021/04/03 05:22:31;;;;;;;5.78;2.15;;;4.40;99.90;;;;;;5059425;28;20037;-74
2021/04/03 05:24:57;;;;;;;4.10;1.95;;;4.30;99.90;;;;;;5057658;28;20028;-74
2021/04/03 05:27:23;;;;;;;6.78;3.15;;;4.20;99.90;;;;;;5060136;28;20048;-74
2021/04/03 05:29:48;;;;;;;5.68;1.90;;;4.20;99.90;;;;;;5055486;28;20036;-74
2021/04/03 05:32:14;;;;;;;4.65;1.50;;;4.10;99.90;;;;;;5059523;28;20158;-74
2021/04/03 05:34:40;;;;;;;8.45;2.13;;;4.10;99.90;;;;;;5056599;28;20110;-73
2021/04/03 05:37:05;;;;;;;3.55;1.75;;;4.10;99.90;;;;;;5060195;28;20047;-74
2021/04/03 05:39:31;;;;;;;7.70;2.00;;;4.00;99.90;;;;;;5060008;28;20036;-73
2021/04/03 05:41:57;;;;;;;6.63;1.60;;;4.00;99.90;;;;;;5058606;28;20036;-73
2021/04/03 05:44:24;;;;;;;6.25;1.90;;;4.00;99.90;;;;;;5059475;28;20036;-74
2021/04/03 05:46:50;;;;;;;8.85;1.90;;;3.90;99.90;;;;;;5057954;28;20033;-74
2021/04/03 05:49:18;;;;;;;5.53;1.77;;;3.90;99.90;;;;;;5059222;28;20150;-74
2021/04/03 05:51:45;;;;;;;7.03;1.98;;;3.90;99.90;;;;;;5060023;28;20032;-74
2021/04/03 05:54:11;;;;;;;6.00;2.28;;;4.00;99.90;;;;;;5037648;28;20052;-73
2021/04/03 05:56:37;;;;;;;3.90;1.70;;;4.00;99.90;;;;;;5058546;28;20472;-73
2021/04/03 05:59:03;;;;;;;3.00;1.70;;;4.00;99.90;;;;;;5060805;28;20032;-73
2021/04/03 06:01:29;;;;;;;5.60;2.13;;;4.10;99.90;;;;;;5057650;28;20096;-73
2021/04/03 06:03:55;;;;;;;6.50;1.90;;;4.10;99.90;;;;;;5059852;28;20041;-76
2021/04/03 06:06:25;;;;;;;6.30;2.17;;;4.20;99.90;;;;;;5055256;28;20032;-75
2021/04/03 06:08:51;;;;;;;3.17;1.77;;;4.30;99.90;;;;;;5058329;28;20032;-76
2021/04/03 06:11:18;;;;;;;5.68;1.73;;;4.30;99.90;;;;;;5058276;28;20028;-76
2021/04/03 06:13:56;;;;;;;5.50;1.98;;;4.40;99.90;;;;;;5058964;28;20085;-76
2021/04/03 06:16:32;;;;;;;4.18;1.90;;;4.50;99.90;;;;;;5056020;28;20037;-75
2021/04/03 06:19:11;;;;;;;7.10;1.50;;;4.60;99.90;;;;;;5057177;28;20124;-76
2021/04/03 06:21:42;;;;;;;7.15;1.50;;;4.70;99.90;;;;;;5040297;28;20395;-76
2021/04/03 06:24:42;;;;;;;6.25;1.77;;;4.70;99.90;;;;;;5059645;28;20044;-76
2021/04/03 06:27:21;;;;;;;3.70;1.70;;;4.80;99.90;;;;;;4983468;28;20030;-76
2021/04/03 06:30:12;;;;;;;6.18;1.85;;;4.90;99.90;;;;;;5079253;28;20373;-75
2021/04/03 06:32:38;;;;;;;6.72;2.00;;;5.00;99.90;;;;;;5059809;28;20040;-73
2021/04/03 06:35:04;;;;;;;5.40;1.77;;;5.20;99.90;;;;;;5059507;28;20487;-73
2021/04/03 06:37:33;;;;;;;2.72;1.75;;;5.30;99.90;;;;;;5053262;28;20087;-73
2021/04/03 06:39:58;;;;;;;9.52;2.35;;;5.40;99.90;;;;;;5055133;28;20052;-74
2021/04/03 06:42:55;;;;;;;7.53;1.92;;;5.40;99.90;;;;;;5055367;28;20451;-73
2021/04/03 06:45:21;;;;;;;4.88;1.90;;;5.50;99.90;;;;;;5051268;28;20573;-73
2021/04/03 06:47:48;;;;;;;5.90;2.35;;;5.50;99.90;;;;;;5053882;28;20020;-73
2021/04/03 06:50:16;;;;;;;8.63;2.20;;;5.50;99.90;;;;;;5055883;28;20497;-73
2021/04/03 06:52:42;;;;;;;10.18;2.45;;;5.60;99.90;;;;;;5038189;28;20079;-73
2021/04/03 06:55:13;;;;;;;6.10;1.85;;;5.60;99.90;;;;;;5054474;28;20044;-73
2021/04/03 06:57:42;;;;;;;11.57;2.40;;;5.70;99.90;;;;;;5040459;28;20028;-73
2021/04/03 07:00:10;;;;;;;4.68;2.10;;;5.80;99.90;;;;;;5057693;28;20029;-73
2021/04/03 07:02:47;;;;;;;4.95;2.15;;;5.90;99.90;;;;;;5052842;28;20419;-73
2021/04/03 07:05:14;;;;;;;3.25;1.55;;;6.00;99.90;;;;;;5055403;28;20024;-73
2021/04/03 07:07:42;;;;;;;4.88;2.00;;;6.20;99.90;;;;;;5056583;28;20029;-73
2021/04/03 07:10:09;;;;;;;6.13;1.88;;;6.30;99.90;;;;;;5058646;28;20032;-73
2021/04/03 07:12:36;;;;;;;6.07;1.50;;;6.40;99.90;;;;;;5056176;28;20036;-73
2021/04/03 07:15:03;;;;;;;5.30;2.08;;;6.40;99.90;;;;;;5049843;28;20044;-73
2021/04/03 07:17:30;;;;;;;6.28;2.00;;;6.50;99.90;;;;;;5053518;28;20025;-73
2021/04/03 07:19:56;;;;;;;3.80;2.08;;;6.50;99.90;;;;;;5054772;28;20033;-73
2021/04/03 07:22:23;;;;;;;9.10;2.03;;;6.60;99.90;;;;;;5054913;28;20694;-73
2021/04/03 07:24:50;;;;;;;3.97;1.90;;;6.60;99.90;;;;;;5054155;28;20033;-73
2021/04/03 07:27:16;;;;;;;4.25;2.63;;;6.70;99.90;;;;;;5054268;28;20044;-73
2021/04/03 07:29:44;;;;;;;9.45;2.15;;;6.70;99.90;;;;;;5059453;28;20020;-73
2021/04/03 07:32:28;;;;;;;8.48;2.17;;;6.70;99.90;;;;;;5086863;28;20087;-73
2021/04/03 07:34:53;;;;;;;3.58;1.42;;;6.70;99.90;;;;;;5053824;28;20380;-73
2021/04/03 07:37:34;;;;;;;8.32;2.00;;;6.60;99.90;;;;;;5058633;28;20087;-73
2021/04/03 07:40:00;;;;;;;4.47;1.67;;;6.60;99.90;;;;;;5075794;28;20044;-73
2021/04/03 07:42:40;;;;;;;6.80;1.98;;;6.50;99.90;;;;;;5059212;28;20498;-73
2021/04/03 07:45:33;;;;;;;3.17;1.95;;;6.50;99.90;;;;;;5057112;28;20113;-73
2021/04/03 07:47:59;;;;;;;5.38;1.98;;;6.60;99.90;;;;;;5058516;28;20243;-73
2021/04/03 07:50:41;;;;;;;6.32;1.90;;;6.60;99.90;;;;;;5058261;28;20114;-73
2021/04/03 07:53:09;;;;;;;5.85;2.08;;;6.70;99.90;;;;;;5084217;28;20032;-73
2021/04/03 07:55:40;;;;;;;3.67;1.73;;;6.80;99.90;;;;;;5089428;28;20428;-73
2021/04/03 07:58:25;;;;;;;10.65;2.85;;;6.90;99.90;;;;;;5054481;28;20090;-73
2021/04/03 08:00:51;;;;;;;5.77;1.50;;;7.00;99.40;;;;;;5050988;28;20634;-74
2021/04/03 08:03:25;;;;;;;2.65;1.33;;;7.00;98.70;;;;;;5056167;28;20056;-73
2021/04/03 08:06:03;;;;;;;10.38;1.85;;;7.00;99.90;;;;;;5055171;28;20108;-73
2021/04/03 08:08:32;;;;;;;2.70;1.40;;;7.00;99.90;;;;;;5053006;28;20031;-73
2021/04/03 08:11:07;;;;;;;6.13;2.05;;;7.10;99.20;;;;;;5061317;28;20029;-73
2021/04/03 08:13:35;;;;;;;;;;;7.10;98.60;;;;;;5056562;28;20430;-74
2021/04/03 08:16:04;;;;;;;4.55;1.75;;;7.20;97.80;;;;;;5059338;28;20028;-74
2021/04/03 08:18:31;;;;;;;2.92;1.48;;;7.20;97.10;;;;;;5061312;28;20028;-73
2021/04/03 08:20:57;;;;;;;3.38;1.40;;;7.10;97.30;;;;;;5043443;28;20376;-73
2021/04/03 08:23:37;;;;;;;4.78;1.33;;;7.10;97.50;;;;;;5061817;28;20081;-72
2021/04/03 08:26:04;;;;;;;2.40;1.20;;;7.20;97.80;;;;;;5058736;28;20029;-74
2021/04/03 08:28:31;;;;;;;2.13;1.38;;;7.30;96.60;;;;;;5051337;28;20032;-75
2021/04/03 08:30:57;;;;;;;1.75;1.40;;;7.40;96.20;;;;;;5048846;28;20037;-75
2021/04/03 08:33:23;;;;;;;4.45;1.60;;;7.40;95.00;;;;;;5055097;28;20549;-74
2021/04/03 08:35:50;;;;;;;5.47;1.65;;;7.40;95.20;;;;;;5059179;28;20032;-73
2021/04/03 08:41:07;;;;;;;3.42;1.35;;;7.30;94.30;;;;;;5082687;28;20037;-74
2021/04/03 08:43:33;;;;;;;3.15;1.50;;;7.20;94.30;;;;;;5055315;28;20029;-75
2021/04/03 08:46:16;;;;;;;6.63;2.33;;;7.10;95.00;;;;;;5051937;28;20890;-73
2021/04/03 08:48:53;;;;;;;6.00;1.60;;;7.20;95.80;;;;;;5054644;28;20051;-73
2021/04/03 08:51:19;;;;;;;3.42;1.70;;;7.20;95.30;;;;;;5056951;28;20043;-73
2021/04/03 08:53:50;;;;;;;4.15;1.27;;;7.30;96.30;;;;;;5031999;28;20033;-74
2021/04/03 08:56:28;;;;;;;3.40;1.25;;;7.40;95.30;;;;;;5047721;28;20037;-73
2021/04/03 08:58:56;;;;;;;3.67;1.75;;;7.40;94.90;;;;;;5051547;28;20120;-73
2021/04/03 09:01:26;;;;;;;3.20;1.20;;;7.50;96.10;;;;;;5057646;28;20029;-73
2021/04/03 09:03:56;;;;;;;4.63;1.60;;;7.70;96.90;;;;;;5058162;28;20028;-74
2021/04/03 09:06:47;;;;;;;3.55;1.70;;;7.80;94.50;;;;;;5061040;28;20224;-73
2021/04/03 09:09:15;;;;;;;7.25;2.10;;;7.90;96.90;;;;;;5060161;28;20024;-73
2021/04/03 09:12:02;;;;;;;1.73;1.35;;;8.10;96.60;;;;;;5060962;28;20017;-73
2021/04/03 09:14:29;;;;;;;3.72;1.58;;;8.30;95.00;;;;;;5057307;28;20029;-73
2021/04/03 09:16:56;;;;;;;3.85;2.03;;;8.30;93.70;;;;;;5060636;28;20036;-74
2021/04/03 09:19:35;;;;;;;2.88;1.95;;;8.30;92.10;;;;;;5057182;28;20037;-74
2021/04/03 09:22:03;;;;;;;8.32;1.70;;;8.20;92.30;;;;;;5059114;28;20017;-76
2021/04/03 09:24:37;;;;;;;3.97;1.80;;;8.10;92.80;;;;;;5061957;28;20551;-73
2021/04/03 09:27:12;;;;;;;4.70;1.48;;;8.20;95.40;;;;;;5057066;28;20174;-73
2021/04/03 09:29:39;;;;;;;9.52;2.00;;;8.50;95.90;;;;;;5058229;28;20060;-75
2021/04/03 09:32:06;;;;;;;3.63;1.55;;;8.70;94.40;;;;;;5061760;28;20028;-72
2021/04/03 09:34:34;;;;;;;2.92;1.00;;;8.90;92.20;;;;;;5060288;28;20024;-73
2021/04/03 09:37:22;;;;;;;3.63;1.42;;;9.10;91.90;;;;;;5061022;28;20024;-73
2021/04/03 09:39:52;;;;;;;4.53;1.75;;;9.20;92.50;;;;;;5058195;28;20074;-74
2021/04/03 09:42:20;;;;;;;2.35;1.33;;;9.40;91.10;;;;;;5057538;28;20029;-74
2021/04/03 09:44:47;;;;;;;2.92;1.30;;;9.30;88.10;;;;;;5061118;28;20035;-75
2021/04/03 09:47:13;;;;;;;3.08;1.30;;;9.20;88.40;;;;;;5058071;28;20048;-73
2021/04/03 09:49:43;;;;;;;5.10;1.33;;;9.10;87.50;;;;;;5060223;28;20488;-75
2021/04/03 09:52:09;;;;;;;4.00;1.40;;;9.00;88.00;;;;;;5059598;28;20025;-74
2021/04/03 09:54:36;;;;;;;3.67;1.70;;;8.90;86.20;;;;;;5058115;28;20060;-73
2021/04/03 09:57:02;;;;;;;2.90;1.60;;;8.90;88.70;;;;;;5059427;28;20410;-73
2021/04/03 09:59:28;;;;;;;4.65;1.23;;;8.80;86.70;;;;;;5059802;28;20017;-73
2021/04/03 10:01:58;;;;;;;5.47;1.67;;;8.70;85.60;;;;;;5054649;28;20029;-73
2021/04/03 10:04:24;;;;;;;2.80;1.25;;;8.70;85.70;;;;;;5059850;28;20108;-73
2021/04/03 10:06:51;;;;;;;4.93;1.40;;;8.60;85.60;;;;;;5060613;28;20462;-73
2021/04/03 10:09:17;;;;;;;6.40;1.88;;;8.50;86.10;;;;;;5058089;28;20025;-73
2021/04/03 10:11:43;;;;;;;3.22;1.73;;;8.40;85.50;;;;;;5060357;28;20031;-74
2021/04/03 10:14:08;;;;;;;4.40;1.65;;;8.40;85.70;;;;;;5058302;28;20082;-74
2021/04/03 10:16:35;;;;;;;2.50;1.25;;;8.40;84.50;;;;;;5059141;28;20510;-74
2021/04/03 10:19:00;;;;;;;3.13;1.38;;;8.40;84.90;;;;;;5062805;28;20068;-75
2021/04/03 10:21:26;;;;;;;3.05;1.30;;;8.40;85.10;;;;;;5065329;28;20056;-74
2021/04/03 10:23:52;;;;;;;3.53;1.20;;;8.30;84.70;;;;;;5060570;28;20033;-73
2021/04/03 10:26:18;;;;;;;4.38;1.38;;;8.40;86.00;;;;;;5057871;28;20032;-73
2021/04/03 10:28:44;;;;;;;1.45;1.17;;;8.50;83.70;;;;;;5040726;28;20048;-73
2021/04/03 10:31:10;;;;;;;2.30;1.60;;;8.50;84.40;;;;;;5054509;28;20029;-73
2021/04/03 10:33:36;;;;;;;2.72;1.60;;;8.60;86.10;;;;;;5048610;28;20033;-73
2021/04/03 10:36:04;;;;;;;2.53;1.20;;;8.60;87.20;;;;;;5063397;28;20047;-74
2021/04/03 10:38:30;;;;;;;4.90;1.63;;;8.70;83.90;;;;;;5047860;28;20058;-75
2021/04/03 10:40:55;;;;;;;2.55;1.30;;;8.80;83.80;;;;;;5065823;28;20521;-73
2021/04/03 10:43:21;;;;;;;2.67;1.27;;;8.90;82.40;;;;;;5067618;28;20033;-73
2021/04/03 10:45:47;;;;;;;3.45;1.55;;;8.90;85.20;;;;;;5049626;28;20111;-75
2021/04/03 10:48:12;;;;;;;3.53;1.00;;;9.10;81.50;;;;;;5031074;28;20033;-73
2021/04/03 10:50:40;;;;;;;4.63;1.50;;;9.10;81.30;;;;;;5047418;28;20021;-74
2021/04/03 10:53:06;;;;;;;6.72;1.60;;;8.90;82.20;;;;;;5051066;28;20033;-73
2021/04/03 10:55:33;;;;;;;3.97;1.45;;;8.80;83.00;;;;;;5055800;28;20120;-73
2021/04/03 10:57:58;;;;;;;1.67;1.48;;;8.70;84.20;;;;;;5054172;28;20035;-73
2021/04/03 11:00:24;;;;;;;3.33;1.45;;;8.70;87.40;;;;;;5054206;28;20025;-74
2021/04/03 11:02:50;;;;;;;6.07;1.35;;;8.70;83.70;;;;;;5052881;28;20103;-74
2021/04/03 11:05:16;;;;;;;2.13;1.23;;;8.70;84.60;;;;;;5087061;28;20173;-73
2021/04/03 11:07:42;;;;;;;2.90;1.20;;;8.80;87.30;;;;;;5053717;28;20115;-74
2021/04/03 11:10:09;;;;;;;2.25;1.15;;;8.90;86.00;;;;;;5046395;28;20033;-73
2021/04/03 11:12:35;;;;;;;3.03;1.63;;;9.00;83.80;;;;;;5045365;28;20659;-73
2021/04/03 11:15:01;;;;;;;2.55;1.30;;;9.10;82.00;;;;;;5053415;28;20024;-73
2021/04/03 11:17:26;;;;;;;2.92;1.67;;;9.10;84.40;;;;;;5064791;28;20028;-73
2021/04/03 11:19:52;;;;;;;7.95;1.88;;;9.20;83.40;;;;;;5047261;28;20021;-73
2021/04/03 11:22:18;;;;;;;3.55;1.25;;;9.20;83.00;;;;;;5043691;28;20495;-73
2021/04/03 11:24:44;;;;;;;2.63;1.60;;;9.20;83.50;;;;;;5044164;28;20029;-73
2021/04/03 11:27:09;;;;;;;2.75;1.60;;;9.20;81.10;;;;;;5045550;28;20041;-74
2021/04/03 11:29:35;;;;;;;3.05;1.33;;;9.10;80.70;;;;;;5052232;28;20033;-73
2021/04/03 11:32:01;;;;;;;3.03;1.40;;;9.00;81.20;;;;;;5059347;28;20025;-73
2021/04/03 11:34:26;;;;;;;4.70;1.48;;;8.90;84.80;;;;;;5063128;28;20028;-73
2021/04/03 11:36:52;;;;;;;4.05;1.23;;;9.00;86.10;;;;;;5063064;28;20028;-73
2021/04/03 11:39:18;;;;;;;4.10;1.40;;;9.10;84.40;;;;;;5063093;28;20036;-73
2021/04/03 11:41:44;;;;;;;2.60;1.02;;;9.30;83.50;;;;;;5062242;28;20400;-73
2021/04/03 11:44:10;;;;;;;2.58;1.45;;;9.50;83.80;;;;;;5065902;28;20037;-73
2021/04/03 11:46:35;;;;;;;3.72;2.00;;;9.80;81.40;;;;;;5065534;28;20047;-73
2021/04/03 11:49:01;;;;;;;2.45;1.58;;;9.90;74.20;;;;;;5065321;28;20032;-75
2021/04/03 11:51:27;;;;;;;2.38;1.45;;;10.10;77.60;;;;;;5061441;28;20099;-72
2021/04/03 11:53:53;;;;;;;2.00;1.10;;;10.40;78.50;;;;;;5045782;28;20041;-73
2021/04/03 11:56:19;;;;;;;1.65;0.95;;;10.60;71.50;;;;;;5080424;28;20119;-74
2021/04/03 11:58:45;;;;;;;3.10;1.17;;;10.70;71.00;;;;;;5047930;28;20655;-75
2021/04/03 12:01:10;;;;;;;3.90;1.30;;;10.80;69.60;;;;;;5046425;28;20040;-73
2021/04/03 12:03:36;;;;;;;2.17;1.08;;;10.80;69.00;;;;;;5049137;28;20029;-76
2021/04/03 12:06:02;;;;;;;2.42;1.25;;;10.80;66.70;;;;;;5049193;28;21494;-74
2021/04/03 12:08:28;;;;;;;1.50;0.90;;;10.70;69.50;;;;;;5049175;28;20431;-74
2021/04/03 12:10:53;;;;;;;4.90;0.88;;;10.70;66.80;;;;;;5036208;28;20017;-75
2021/04/03 12:13:19;;;;;;;3.17;1.00;;;10.80;67.30;;;;;;5070044;28;20033;-75
2021/04/03 12:15:45;;;;;;;3.95;1.27;;;10.90;66.10;;;;;;5053051;28;20025;-74
2021/04/03 12:18:11;;;;;;;1.90;1.25;;;10.90;67.80;;;;;;5055959;28;20032;-74
2021/04/03 12:20:37;;;;;;;5.78;1.05;;;10.90;67.80;;;;;;5057056;28;20529;-75
2021/04/03 12:23:02;;;;;;;3.38;1.63;;;11.00;67.50;;;;;;5055476;28;20033;-73
2021/04/03 12:25:29;;;;;;;2.85;1.50;;;11.20;70.30;;;;;;5036691;28;20055;-74
2021/04/03 12:27:54;;;;;;;3.45;1.15;;;11.50;68.80;;;;;;5055298;28;20033;-73
2021/04/03 12:30:20;;;;;;;1.60;1.45;;;11.70;65.40;;;;;;5055847;28;20075;-75
2021/04/03 12:32:46;;;;;;;1.63;1.05;;;11.70;64.80;;;;;;5054821;28;20025;-74
2021/04/03 12:35:12;;;;;;;3.45;1.10;;;11.20;64.70;;;;;;5056348;28;20037;-73
2021/04/03 12:37:39;;;;;;;2.70;1.35;;;10.90;66.90;;;;;;5055250;28;20032;-73
2021/04/03 12:40:06;;;;;;;5.75;1.20;;;10.40;67.50;;;;;;5055628;28;20123;-74
2021/04/03 12:42:33;;;;;;;1.95;1.00;;;10.20;69.50;;;;;;5054993;28;20058;-73
2021/04/03 12:44:59;;;;;;;3.78;1.10;;;10.00;71.20;;;;;;5056037;28;20040;-73
2021/04/03 12:47:25;;;;;;;3.53;1.10;;;9.90;71.60;;;;;;5055038;28;20029;-74
2021/04/03 12:49:51;;;;;;;2.92;0.93;;;9.90;73.00;;;;;;5044602;28;20048;-74
2021/04/03 12:52:17;;;;;;;2.40;1.08;;;9.90;71.20;;;;;;5048532;28;20077;-73
2021/04/03 12:54:42;;;;;;;0.82;0.80;;;10.00;73.60;;;;;;5052948;28;20032;-74
2021/04/03 12:57:09;;;;;;;0.93;0.88;;;10.20;72.60;;;;;;5054072;28;20095;-74
2021/04/03 12:59:35;;;;;;;3.60;0.88;;;10.50;71.20;;;;;;5056174;28;20488;-74
2021/04/03 13:02:01;;;;;;;2.47;1.02;;;10.90;69.70;;;;;;5057706;28;20104;-75
2021/04/03 13:04:27;;;;;;;2.33;1.10;;;11.30;65.60;;;;;;5061107;28;20170;-74
2021/04/03 13:06:52;;;;;;;3.78;0.90;;;11.60;67.80;;;;;;5049632;28;20033;-73
2021/04/03 13:09:18;;;;;;;2.15;0.68;;;11.80;63.80;;;;;;5058633;28;20028;-74